sensor_id;sensor_type;location;lat;lon;timestamp;P1;durP1;ratioP1;P2;durP2;ratioP2
44130;SDS011;29792;48.726;9.248;2023-01-08T00:01:17;12.05;;;10.15;;
44130;SDS011;29792;48.726;9.248;2023-01-08T00:03:43;11.57;;;9.10;;
44130;SDS011;29792;48.726;9.248;2023-01-08T00:06:12;10.63;;;7.10;;
44130;SDS011;29792;48.726;9.248;2023-01-08T00:08:39;7.68;;;6.38;;
44130;SDS011;29792;48.726;9.248;2023-01-08T00:11:05;8.10;;;5.43;;
44130;SDS011;29792;48.726;9.248;2023-01-08T00:13:31;8.20;;;6.57;;
44130;SDS011;29792;48.726;9.248;2023-01-08T00:16:01;11.82;;;7.30;;
44130;SDS011;29792;48.726;9.248;2023-01-08T00:18:36;12.80;;;10.93;;
44130;SDS011;29792;48.726;9.248;2023-01-08T00:21:02;10.82;;;8.15;;
44130;SDS011;29792;48.726;9.248;2023-01-08T00:23:27;9.23;;;8.23;;
44130;SDS011;29792;48.726;9.248;2023-01-08T00:25:53;11.60;;;9.50;;
44130;SDS011;29792;48.726;9.248;2023-01-08T00:28:18;10.00;;;8.75;;
44130;SDS011;29792;48.726;9.248;2023-01-08T00:30:45;10.93;;;9.27;;
44130;SDS011;29792;48.726;9.248;2023-01-08T00:33:11;10.65;;;9.02;;
44130;SDS011;29792;48.726;9.248;2023-01-08T00:35:37;11.23;;;8.93;;
44130;SDS011;29792;48.726;9.248;2023-01-08T00:38:03;11.82;;;8.35;;
44130;SDS011;29792;48.726;9.248;2023-01-08T00:40:28;10.23;;;7.93;;
44130;SDS011;29792;48.726;9.248;2023-01-08T00:42:53;11.50;;;8.93;;
44130;SDS011;29792;48.726;9.248;2023-01-08T00:45:18;10.48;;;8.95;;
44130;SDS011;29792;48.726;9.248;2023-01-08T00:47:44;11.10;;;9.38;;
44130;SDS011;29792;48.726;9.248;2023-01-08T00:50:09;10.05;;;8.10;;
44130;SDS011;29792;48.726;9.248;2023-01-08T00:52:34;10.90;;;8.07;;
44130;SDS011;29792;48.726;9.248;2023-01-08T00:55:00;10.70;;;8.95;;
44130;SDS011;29792;48.726;9.248;2023-01-08T00:57:25;9.90;;;7.80;;
44130;SDS011;29792;48.726;9.248;2023-01-08T00:59:50;12.43;;;9.18;;
44130;SDS011;29792;48.726;9.248;2023-01-08T01:02:15;12.60;;;9.80;;
44130;SDS011;29792;48.726;9.248;2023-01-08T01:04:41;14.27;;;10.48;;
44130;SDS011;29792;48.726;9.248;2023-01-08T01:07:06;10.63;;;9.15;;
44130;SDS011;29792;48.726;9.248;2023-01-08T01:09:31;12.00;;;9.80;;
44130;SDS011;29792;48.726;9.248;2023-01-08T01:11:56;10.98;;;9.45;;
44130;SDS011;29792;48.726;9.248;2023-01-08T01:14:22;13.38;;;10.00;;
44130;SDS011;29792;48.726;9.248;2023-01-08T01:16:47;15.38;;;10.63;;
44130;SDS011;29792;48.726;9.248;2023-01-08T01:19:13;13.52;;;10.23;;
44130;SDS011;29792;48.726;9.248;2023-01-08T01:21:39;10.20;;;8.18;;
44130;SDS011;29792;48.726;9.248;2023-01-08T01:24:05;11.10;;;9.63;;
44130;SDS011;29792;48.726;9.248;2023-01-08T01:26:31;12.40;;;10.07;;
44130;SDS011;29792;48.726;9.248;2023-01-08T01:28:57;12.52;;;9.65;;
44130;SDS011;29792;48.726;9.248;2023-01-08T01:31:24;10.98;;;9.35;;
44130;SDS011;29792;48.726;9.248;2023-01-08T01:33:50;12.73;;;9.20;;
44130;SDS011;29792;48.726;9.248;2023-01-08T01:36:16;12.60;;;9.07;;
44130;SDS011;29792;48.726;9.248;2023-01-08T01:38:44;13.52;;;10.20;;
44130;SDS011;29792;48.726;9.248;2023-01-08T01:41:44;12.95;;;10.65;;
44130;SDS011;29792;48.726;9.248;2023-01-08T01:49:53;11.65;;;10.45;;
44130;SDS011;29792;48.726;9.248;2023-01-08T01:52:24;11.40;;;10.05;;
44130;SDS011;29792;48.726;9.248;2023-01-08T01:54:52;10.02;;;9.02;;
44130;SDS011;29792;48.726;9.248;2023-01-08T01:57:18;12.05;;;9.05;;
44130;SDS011;29792;48.726;9.248;2023-01-08T01:59:43;15.18;;;10.75;;
44130;SDS011;29792;48.726;9.248;2023-01-08T02:02:10;10.07;;;8.82;;
44130;SDS011;29792;48.726;9.248;2023-01-08T02:04:36;9.85;;;7.22;;
44130;SDS011;29792;48.726;9.248;2023-01-08T02:12:17;8.30;;;6.47;;
44130;SDS011;29792;48.726;9.248;2023-01-08T02:20:21;11.73;;;7.15;;
44130;SDS011;29792;48.726;9.248;2023-01-08T02:22:54;11.05;;;8.40;;
44130;SDS011;29792;48.726;9.248;2023-01-08T02:25:52;9.40;;;7.38;;
44130;SDS011;29792;48.726;9.248;2023-01-08T02:28:31;9.52;;;7.80;;
44130;SDS011;29792;48.726;9.248;2023-01-08T02:31:00;7.90;;;7.10;;
44130;SDS011;29792;48.726;9.248;2023-01-08T02:33:41;7.57;;;6.55;;
44130;SDS011;29792;48.726;9.248;2023-01-08T02:38:57;9.57;;;7.10;;
44130;SDS011;29792;48.726;9.248;2023-01-08T02:41:27;7.97;;;6.63;;
44130;SDS011;29792;48.726;9.248;2023-01-08T02:44:00;12.02;;;8.65;;
44130;SDS011;29792;48.726;9.248;2023-01-08T02:46:28;8.45;;;6.35;;
44130;SDS011;29792;48.726;9.248;2023-01-08T02:49:00;8.98;;;7.32;;
44130;SDS011;29792;48.726;9.248;2023-01-08T02:51:32;8.45;;;7.55;;
44130;SDS011;29792;48.726;9.248;2023-01-08T02:54:05;8.82;;;7.53;;
44130;SDS011;29792;48.726;9.248;2023-01-08T02:56:35;8.10;;;6.90;;
44130;SDS011;29792;48.726;9.248;2023-01-08T02:59:05;8.85;;;7.00;;
44130;SDS011;29792;48.726;9.248;2023-01-08T03:01:32;7.55;;;6.57;;
44130;SDS011;29792;48.726;9.248;2023-01-08T03:03:59;9.35;;;7.55;;
44130;SDS011;29792;48.726;9.248;2023-01-08T03:06:29;8.68;;;7.13;;
44130;SDS011;29792;48.726;9.248;2023-01-08T03:08:55;7.50;;;6.63;;
44130;SDS011;29792;48.726;9.248;2023-01-08T03:11:23;8.90;;;6.75;;
44130;SDS011;29792;48.726;9.248;2023-01-08T03:13:56;9.93;;;6.43;;
44130;SDS011;29792;48.726;9.248;2023-01-08T03:16:24;9.55;;;7.22;;
44130;SDS011;29792;48.726;9.248;2023-01-08T03:19:01;7.68;;;6.40;;
44130;SDS011;29792;48.726;9.248;2023-01-08T03:21:33;8.43;;;6.72;;
44130;SDS011;29792;48.726;9.248;2023-01-08T03:24:01;8.80;;;7.13;;
44130;SDS011;29792;48.726;9.248;2023-01-08T03:26:27;10.23;;;7.38;;
44130;SDS011;29792;48.726;9.248;2023-01-08T03:28:56;9.93;;;7.93;;
44130;SDS011;29792;48.726;9.248;2023-01-08T03:31:21;11.00;;;7.07;;
44130;SDS011;29792;48.726;9.248;2023-01-08T03:33:50;8.07;;;6.13;;
44130;SDS011;29792;48.726;9.248;2023-01-08T03:36:17;8.38;;;6.72;;
44130;SDS011;29792;48.726;9.248;2023-01-08T03:39:09;8.02;;;5.32;;
44130;SDS011;29792;48.726;9.248;2023-01-08T03:41:52;5.67;;;3.90;;
44130;SDS011;29792;48.726;9.248;2023-01-08T03:44:20;6.18;;;4.68;;
44130;SDS011;29792;48.726;9.248;2023-01-08T03:46:47;7.63;;;4.45;;
44130;SDS011;29792;48.726;9.248;2023-01-08T03:49:16;4.68;;;3.85;;
44130;SDS011;29792;48.726;9.248;2023-01-08T03:51:45;6.65;;;5.35;;
44130;SDS011;29792;48.726;9.248;2023-01-08T03:54:15;6.60;;;5.13;;
44130;SDS011;29792;48.726;9.248;2023-01-08T03:56:42;6.18;;;4.57;;
44130;SDS011;29792;48.726;9.248;2023-01-08T03:59:12;4.63;;;3.67;;
44130;SDS011;29792;48.726;9.248;2023-01-08T04:01:38;4.85;;;3.97;;
44130;SDS011;29792;48.726;9.248;2023-01-08T04:04:03;5.65;;;3.67;;
44130;SDS011;29792;48.726;9.248;2023-01-08T04:06:29;6.03;;;4.15;;
44130;SDS011;29792;48.726;9.248;2023-01-08T04:08:54;5.70;;;4.72;;
44130;SDS011;29792;48.726;9.248;2023-01-08T04:11:20;5.18;;;3.80;;
44130;SDS011;29792;48.726;9.248;2023-01-08T04:13:45;4.05;;;3.60;;
44130;SDS011;29792;48.726;9.248;2023-01-08T04:16:10;5.45;;;3.58;;
44130;SDS011;29792;48.726;9.248;2023-01-08T04:18:36;4.97;;;4.07;;
44130;SDS011;29792;48.726;9.248;2023-01-08T04:21:01;5.57;;;3.95;;
44130;SDS011;29792;48.726;9.248;2023-01-08T04:23:26;4.97;;;4.50;;
44130;SDS011;29792;48.726;9.248;2023-01-08T04:25:51;5.38;;;4.72;;
44130;SDS011;29792;48.726;9.248;2023-01-08T04:28:17;6.35;;;4.72;;
44130;SDS011;29792;48.726;9.248;2023-01-08T04:30:43;5.20;;;4.07;;
44130;SDS011;29792;48.726;9.248;2023-01-08T04:33:08;7.40;;;5.05;;
44130;SDS011;29792;48.726;9.248;2023-01-08T04:35:34;7.65;;;5.75;;
44130;SDS011;29792;48.726;9.248;2023-01-08T04:38:00;6.88;;;5.20;;
44130;SDS011;29792;48.726;9.248;2023-01-08T04:40:25;5.47;;;4.68;;
44130;SDS011;29792;48.726;9.248;2023-01-08T04:42:50;7.15;;;4.35;;
44130;SDS011;29792;48.726;9.248;2023-01-08T04:45:16;5.60;;;4.90;;
44130;SDS011;29792;48.726;9.248;2023-01-08T04:47:41;8.02;;;4.97;;
44130;SDS011;29792;48.726;9.248;2023-01-08T04:50:07;6.72;;;5.22;;
44130;SDS011;29792;48.726;9.248;2023-01-08T04:52:32;6.45;;;5.40;;
44130;SDS011;29792;48.726;9.248;2023-01-08T04:54:58;7.97;;;4.60;;
44130;SDS011;29792;48.726;9.248;2023-01-08T04:57:23;7.18;;;5.97;;
44130;SDS011;29792;48.726;9.248;2023-01-08T04:59:48;7.43;;;4.95;;
44130;SDS011;29792;48.726;9.248;2023-01-08T05:02:13;8.00;;;5.10;;
44130;SDS011;29792;48.726;9.248;2023-01-08T05:04:39;5.05;;;4.53;;
44130;SDS011;29792;48.726;9.248;2023-01-08T05:07:04;4.07;;;3.00;;
44130;SDS011;29792;48.726;9.248;2023-01-08T05:09:30;2.78;;;2.15;;
44130;SDS011;29792;48.726;9.248;2023-01-08T05:11:55;3.47;;;3.05;;
44130;SDS011;29792;48.726;9.248;2023-01-08T05:14:20;3.33;;;1.75;;
44130;SDS011;29792;48.726;9.248;2023-01-08T05:16:46;2.13;;;1.85;;
44130;SDS011;29792;48.726;9.248;2023-01-08T05:19:11;3.10;;;1.58;;
44130;SDS011;29792;48.726;9.248;2023-01-08T05:21:37;1.60;;;1.02;;
44130;SDS011;29792;48.726;9.248;2023-01-08T05:24:02;1.90;;;1.05;;
44130;SDS011;29792;48.726;9.248;2023-01-08T05:26:27;2.10;;;1.10;;
44130;SDS011;29792;48.726;9.248;2023-01-08T05:28:53;1.75;;;1.23;;
44130;SDS011;29792;48.726;9.248;2023-01-08T05:31:18;1.15;;;1.00;;
44130;SDS011;29792;48.726;9.248;2023-01-08T05:33:43;1.77;;;1.10;;
44130;SDS011;29792;48.726;9.248;2023-01-08T05:36:09;2.13;;;0.85;;
44130;SDS011;29792;48.726;9.248;2023-01-08T05:38:35;1.65;;;1.10;;
44130;SDS011;29792;48.726;9.248;2023-01-08T05:41:01;1.17;;;0.77;;
44130;SDS011;29792;48.726;9.248;2023-01-08T05:43:27;3.00;;;0.98;;
44130;SDS011;29792;48.726;9.248;2023-01-08T05:45:53;1.90;;;1.05;;
44130;SDS011;29792;48.726;9.248;2023-01-08T05:48:18;2.13;;;1.50;;
44130;SDS011;29792;48.726;9.248;2023-01-08T05:50:43;1.85;;;1.15;;
44130;SDS011;29792;48.726;9.248;2023-01-08T05:53:09;1.85;;;1.42;;
44130;SDS011;29792;48.726;9.248;2023-01-08T05:55:35;1.95;;;1.42;;
44130;SDS011;29792;48.726;9.248;2023-01-08T05:58:00;2.60;;;1.80;;
44130;SDS011;29792;48.726;9.248;2023-01-08T06:00:27;1.75;;;1.15;;
44130;SDS011;29792;48.726;9.248;2023-01-08T06:02:52;1.83;;;1.08;;
44130;SDS011;29792;48.726;9.248;2023-01-08T06:05:17;1.85;;;1.23;;
44130;SDS011;29792;48.726;9.248;2023-01-08T06:07:42;1.42;;;0.80;;
44130;SDS011;29792;48.726;9.248;2023-01-08T06:10:08;1.40;;;1.08;;
44130;SDS011;29792;48.726;9.248;2023-01-08T06:12:33;3.38;;;1.38;;
44130;SDS011;29792;48.726;9.248;2023-01-08T06:14:58;2.22;;;0.80;;
44130;SDS011;29792;48.726;9.248;2023-01-08T06:17:24;1.48;;;0.80;;
44130;SDS011;29792;48.726;9.248;2023-01-08T06:19:49;6.07;;;1.30;;
44130;SDS011;29792;48.726;9.248;2023-01-08T06:22:14;1.70;;;1.00;;
44130;SDS011;29792;48.726;9.248;2023-01-08T06:24:39;1.52;;;1.30;;
44130;SDS011;29792;48.726;9.248;2023-01-08T06:27:05;1.42;;;1.02;;
44130;SDS011;29792;48.726;9.248;2023-01-08T06:29:30;1.73;;;0.90;;
44130;SDS011;29792;48.726;9.248;2023-01-08T06:31:55;1.30;;;1.20;;
44130;SDS011;29792;48.726;9.248;2023-01-08T06:34:20;1.05;;;0.77;;
44130;SDS011;29792;48.726;9.248;2023-01-08T06:36:46;2.30;;;1.42;;
44130;SDS011;29792;48.726;9.248;2023-01-08T06:39:11;1.27;;;0.60;;
44130;SDS011;29792;48.726;9.248;2023-01-08T06:41:37;0.93;;;0.85;;
44130;SDS011;29792;48.726;9.248;2023-01-08T06:44:02;1.80;;;0.93;;
44130;SDS011;29792;48.726;9.248;2023-01-08T06:46:28;0.57;;;0.57;;
44130;SDS011;29792;48.726;9.248;2023-01-08T06:48:53;0.80;;;0.77;;
44130;SDS011;29792;48.726;9.248;2023-01-08T06:51:18;0.88;;;0.60;;
44130;SDS011;29792;48.726;9.248;2023-01-08T06:53:46;0.95;;;0.55;;
44130;SDS011;29792;48.726;9.248;2023-01-08T06:56:11;1.05;;;0.68;;
44130;SDS011;29792;48.726;9.248;2023-01-08T06:58:37;1.30;;;0.80;;
44130;SDS011;29792;48.726;9.248;2023-01-08T07:01:03;1.88;;;0.82;;
44130;SDS011;29792;48.726;9.248;2023-01-08T07:03:29;0.50;;;0.50;;
44130;SDS011;29792;48.726;9.248;2023-01-08T07:05:54;0.73;;;0.60;;
44130;SDS011;29792;48.726;9.248;2023-01-08T07:08:20;0.70;;;0.60;;
44130;SDS011;29792;48.726;9.248;2023-01-08T07:10:45;2.95;;;0.43;;
44130;SDS011;29792;48.726;9.248;2023-01-08T07:13:11;1.58;;;0.70;;
44130;SDS011;29792;48.726;9.248;2023-01-08T07:15:37;0.85;;;0.63;;
44130;SDS011;29792;48.726;9.248;2023-01-08T07:18:03;0.95;;;0.68;;
44130;SDS011;29792;48.726;9.248;2023-01-08T07:20:30;1.13;;;0.63;;
44130;SDS011;29792;48.726;9.248;2023-01-08T07:22:59;0.70;;;0.70;;
44130;SDS011;29792;48.726;9.248;2023-01-08T07:25:25;1.60;;;0.55;;
44130;SDS011;29792;48.726;9.248;2023-01-08T07:27:50;1.02;;;0.68;;
44130;SDS011;29792;48.726;9.248;2023-01-08T07:30:15;1.08;;;0.73;;
44130;SDS011;29792;48.726;9.248;2023-01-08T07:32:41;0.77;;;0.50;;
44130;SDS011;29792;48.726;9.248;2023-01-08T07:35:06;0.55;;;0.55;;
44130;SDS011;29792;48.726;9.248;2023-01-08T07:37:32;1.95;;;0.63;;
44130;SDS011;29792;48.726;9.248;2023-01-08T07:39:57;0.90;;;0.75;;
44130;SDS011;29792;48.726;9.248;2023-01-08T07:42:22;0.50;;;0.50;;
44130;SDS011;29792;48.726;9.248;2023-01-08T07:44:47;4.13;;;2.45;;
44130;SDS011;29792;48.726;9.248;2023-01-08T07:47:12;1.63;;;0.50;;
44130;SDS011;29792;48.726;9.248;2023-01-08T07:49:38;2.08;;;0.90;;
44130;SDS011;29792;48.726;9.248;2023-01-08T07:52:03;0.80;;;0.80;;
44130;SDS011;29792;48.726;9.248;2023-01-08T07:54:28;1.38;;;0.80;;
44130;SDS011;29792;48.726;9.248;2023-01-08T07:56:54;2.42;;;0.80;;
44130;SDS011;29792;48.726;9.248;2023-01-08T07:59:19;1.08;;;0.98;;
44130;SDS011;29792;48.726;9.248;2023-01-08T08:01:44;0.90;;;0.82;;
44130;SDS011;29792;48.726;9.248;2023-01-08T08:04:09;0.60;;;0.52;;
44130;SDS011;29792;48.726;9.248;2023-01-08T08:06:35;1.30;;;0.47;;
44130;SDS011;29792;48.726;9.248;2023-01-08T08:09:00;0.70;;;0.60;;
44130;SDS011;29792;48.726;9.248;2023-01-08T08:11:27;0.75;;;0.45;;
44130;SDS011;29792;48.726;9.248;2023-01-08T08:13:52;1.92;;;0.90;;
44130;SDS011;29792;48.726;9.248;2023-01-08T08:16:18;1.13;;;0.93;;
44130;SDS011;29792;48.726;9.248;2023-01-08T08:18:43;1.83;;;1.10;;
44130;SDS011;29792;48.726;9.248;2023-01-08T08:21:08;3.60;;;2.53;;
44130;SDS011;29792;48.726;9.248;2023-01-08T08:23:33;0.95;;;0.57;;
44130;SDS011;29792;48.726;9.248;2023-01-08T08:26:00;1.08;;;0.65;;
44130;SDS011;29792;48.726;9.248;2023-01-08T08:28:27;1.38;;;0.98;;
44130;SDS011;29792;48.726;9.248;2023-01-08T08:30:52;1.58;;;0.57;;
44130;SDS011;29792;48.726;9.248;2023-01-08T08:33:17;0.77;;;0.70;;
44130;SDS011;29792;48.726;9.248;2023-01-08T08:35:47;2.35;;;1.00;;
44130;SDS011;29792;48.726;9.248;2023-01-08T08:38:14;0.93;;;0.60;;
44130;SDS011;29792;48.726;9.248;2023-01-08T08:40:40;0.90;;;0.75;;
44130;SDS011;29792;48.726;9.248;2023-01-08T08:43:05;1.92;;;1.25;;
44130;SDS011;29792;48.726;9.248;2023-01-08T08:45:31;4.50;;;1.45;;
44130;SDS011;29792;48.726;9.248;2023-01-08T08:47:56;0.65;;;0.60;;
44130;SDS011;29792;48.726;9.248;2023-01-08T08:50:22;1.10;;;0.70;;
44130;SDS011;29792;48.726;9.248;2023-01-08T08:52:47;2.30;;;0.90;;
44130;SDS011;29792;48.726;9.248;2023-01-08T08:55:13;1.13;;;0.65;;
44130;SDS011;29792;48.726;9.248;2023-01-08T08:57:41;0.63;;;0.50;;
44130;SDS011;29792;48.726;9.248;2023-01-08T09:00:07;0.85;;;0.60;;
44130;SDS011;29792;48.726;9.248;2023-01-08T09:02:32;2.25;;;1.25;;
44130;SDS011;29792;48.726;9.248;2023-01-08T09:04:58;0.85;;;0.50;;
44130;SDS011;29792;48.726;9.248;2023-01-08T09:07:23;0.50;;;0.40;;
44130;SDS011;29792;48.726;9.248;2023-01-08T09:09:48;0.90;;;0.45;;
44130;SDS011;29792;48.726;9.248;2023-01-08T09:12:14;1.13;;;0.57;;
44130;SDS011;29792;48.726;9.248;2023-01-08T09:14:39;0.80;;;0.50;;
44130;SDS011;29792;48.726;9.248;2023-01-08T09:17:04;1.55;;;0.52;;
44130;SDS011;29792;48.726;9.248;2023-01-08T09:19:29;1.88;;;1.35;;
44130;SDS011;29792;48.726;9.248;2023-01-08T09:21:55;0.82;;;0.82;;
44130;SDS011;29792;48.726;9.248;2023-01-08T09:24:20;1.50;;;1.35;;
44130;SDS011;29792;48.726;9.248;2023-01-08T09:26:45;0.77;;;0.60;;
44130;SDS011;29792;48.726;9.248;2023-01-08T09:29:10;2.15;;;1.58;;
44130;SDS011;29792;48.726;9.248;2023-01-08T09:31:36;1.55;;;1.25;;
44130;SDS011;29792;48.726;9.248;2023-01-08T09:34:01;1.75;;;0.85;;
44130;SDS011;29792;48.726;9.248;2023-01-08T09:36:26;0.80;;;0.40;;
44130;SDS011;29792;48.726;9.248;2023-01-08T09:38:51;2.55;;;0.73;;
44130;SDS011;29792;48.726;9.248;2023-01-08T09:41:24;1.20;;;0.50;;
44130;SDS011;29792;48.726;9.248;2023-01-08T09:43:59;0.70;;;0.65;;
44130;SDS011;29792;48.726;9.248;2023-01-08T09:46:28;0.98;;;0.57;;
44130;SDS011;29792;48.726;9.248;2023-01-08T09:48:54;0.90;;;0.50;;
44130;SDS011;29792;48.726;9.248;2023-01-08T09:51:25;1.85;;;0.68;;
44130;SDS011;29792;48.726;9.248;2023-01-08T09:53:55;0.60;;;0.50;;
44130;SDS011;29792;48.726;9.248;2023-01-08T09:56:21;1.67;;;0.63;;
44130;SDS011;29792;48.726;9.248;2023-01-08T10:01:21;1.67;;;0.73;;
44130;SDS011;29792;48.726;9.248;2023-01-08T10:03:50;2.38;;;0.75;;
44130;SDS011;29792;48.726;9.248;2023-01-08T10:06:22;4.53;;;2.35;;
44130;SDS011;29792;48.726;9.248;2023-01-08T10:08:48;1.15;;;0.60;;
44130;SDS011;29792;48.726;9.248;2023-01-08T10:11:14;0.82;;;0.60;;
44130;SDS011;29792;48.726;9.248;2023-01-08T10:13:40;2.17;;;0.73;;
44130;SDS011;29792;48.726;9.248;2023-01-08T10:16:11;0.40;;;0.40;;
44130;SDS011;29792;48.726;9.248;2023-01-08T10:18:57;0.90;;;0.50;;
44130;SDS011;29792;48.726;9.248;2023-01-08T10:21:26;0.75;;;0.60;;
44130;SDS011;29792;48.726;9.248;2023-01-08T10:23:54;0.30;;;0.30;;
44130;SDS011;29792;48.726;9.248;2023-01-08T10:26:24;0.95;;;0.50;;
44130;SDS011;29792;48.726;9.248;2023-01-08T10:28:50;0.68;;;0.40;;
44130;SDS011;29792;48.726;9.248;2023-01-08T10:31:15;0.52;;;0.35;;
44130;SDS011;29792;48.726;9.248;2023-01-08T10:33:45;0.40;;;0.40;;
44130;SDS011;29792;48.726;9.248;2023-01-08T10:36:14;1.30;;;0.75;;
44130;SDS011;29792;48.726;9.248;2023-01-08T10:38:56;0.40;;;0.28;;
44130;SDS011;29792;48.726;9.248;2023-01-08T10:41:24;0.38;;;0.38;;
44130;SDS011;29792;48.726;9.248;2023-01-08T10:44:01;1.75;;;0.25;;
44130;SDS011;29792;48.726;9.248;2023-01-08T10:46:29;0.57;;;0.40;;
44130;SDS011;29792;48.726;9.248;2023-01-08T10:49:00;0.80;;;0.35;;
44130;SDS011;29792;48.726;9.248;2023-01-08T10:51:29;0.50;;;0.50;;
44130;SDS011;29792;48.726;9.248;2023-01-08T10:53:59;0.82;;;0.70;;
44130;SDS011;29792;48.726;9.248;2023-01-08T10:56:40;0.47;;;0.30;;
44130;SDS011;29792;48.726;9.248;2023-01-08T10:59:17;0.57;;;0.43;;
44130;SDS011;29792;48.726;9.248;2023-01-08T11:01:45;1.02;;;0.32;;
44130;SDS011;29792;48.726;9.248;2023-01-08T11:04:15;0.77;;;0.52;;
44130;SDS011;29792;48.726;9.248;2023-01-08T11:06:46;0.85;;;0.35;;
44130;SDS011;29792;48.726;9.248;2023-01-08T11:09:18;1.10;;;0.40;;
44130;SDS011;29792;48.726;9.248;2023-01-08T11:11:47;1.00;;;0.38;;
44130;SDS011;29792;48.726;9.248;2023-01-08T11:17:07;0.57;;;0.20;;
44130;SDS011;29792;48.726;9.248;2023-01-08T11:19:34;0.63;;;0.30;;
44130;SDS011;29792;48.726;9.248;2023-01-08T11:22:01;1.35;;;0.40;;
44130;SDS011;29792;48.726;9.248;2023-01-08T11:24:29;0.50;;;0.30;;
44130;SDS011;29792;48.726;9.248;2023-01-08T11:26:57;0.57;;;0.57;;
44130;SDS011;29792;48.726;9.248;2023-01-08T11:29:29;1.40;;;0.47;;
44130;SDS011;29792;48.726;9.248;2023-01-08T11:37:27;0.50;;;0.28;;
44130;SDS011;29792;48.726;9.248;2023-01-08T11:39:55;0.73;;;0.73;;
44130;SDS011;29792;48.726;9.248;2023-01-08T11:53:07;0.85;;;0.43;;
44130;SDS011;29792;48.726;9.248;2023-01-08T12:04:07;0.70;;;0.70;;
44130;SDS011;29792;48.726;9.248;2023-01-08T12:06:51;0.38;;;0.28;;
44130;SDS011;29792;48.726;9.248;2023-01-08T12:12:16;1.17;;;0.60;;
44130;SDS011;29792;48.726;9.248;2023-01-08T12:14:51;0.57;;;0.20;;
44130;SDS011;29792;48.726;9.248;2023-01-08T12:17:40;0.40;;;0.40;;
44130;SDS011;29792;48.726;9.248;2023-01-08T12:20:42;0.20;;;0.20;;
44130;SDS011;29792;48.726;9.248;2023-01-08T12:32:32;0.82;;;0.38;;
44130;SDS011;29792;48.726;9.248;2023-01-08T12:36:05;0.20;;;0.20;;
44130;SDS011;29792;48.726;9.248;2023-01-08T12:38:10;0.30;;;0.20;;
44130;SDS011;29792;48.726;9.248;2023-01-08T12:40:42;0.40;;;0.20;;
44130;SDS011;29792;48.726;9.248;2023-01-08T12:43:16;0.23;;;0.20;;
44130;SDS011;29792;48.726;9.248;2023-01-08T12:45:47;0.90;;;0.40;;
44130;SDS011;29792;48.726;9.248;2023-01-08T12:48:16;0.40;;;0.30;;
44130;SDS011;29792;48.726;9.248;2023-01-08T12:50:52;0.38;;;0.30;;
44130;SDS011;29792;48.726;9.248;2023-01-08T12:53:29;0.40;;;0.32;;
44130;SDS011;29792;48.726;9.248;2023-01-08T12:56:31;0.55;;;0.40;;
44130;SDS011;29792;48.726;9.248;2023-01-08T13:01:40;0.10;;;0.10;;
44130;SDS011;29792;48.726;9.248;2023-01-08T13:04:11;1.80;;;0.63;;
44130;SDS011;29792;48.726;9.248;2023-01-08T13:06:37;3.63;;;0.82;;
44130;SDS011;29792;48.726;9.248;2023-01-08T13:09:17;1.38;;;1.23;;
44130;SDS011;29792;48.726;9.248;2023-01-08T13:11:51;0.65;;;0.35;;
44130;SDS011;29792;48.726;9.248;2023-01-08T13:14:19;0.25;;;0.17;;
44130;SDS011;29792;48.726;9.248;2023-01-08T13:16:45;0.17;;;0.17;;
44130;SDS011;29792;48.726;9.248;2023-01-08T13:19:22;0.63;;;0.28;;
44130;SDS011;29792;48.726;9.248;2023-01-08T13:21:51;0.45;;;0.38;;
44130;SDS011;29792;48.726;9.248;2023-01-08T13:24:28;3.03;;;0.65;;
44130;SDS011;29792;48.726;9.248;2023-01-08T13:26:56;0.35;;;0.22;;
44130;SDS011;29792;48.726;9.248;2023-01-08T13:29:47;0.30;;;0.28;;
44130;SDS011;29792;48.726;9.248;2023-01-08T13:32:47;0.10;;;0.10;;
44130;SDS011;29792;48.726;9.248;2023-01-08T13:37:39;0.20;;;0.20;;
44130;SDS011;29792;48.726;9.248;2023-01-08T13:43:17;0.65;;;0.20;;
44130;SDS011;29792;48.726;9.248;2023-01-08T13:48:25;0.20;;;0.20;;
44130;SDS011;29792;48.726;9.248;2023-01-08T13:50:53;0.30;;;0.20;;
44130;SDS011;29792;48.726;9.248;2023-01-08T13:53:19;0.65;;;0.63;;
44130;SDS011;29792;48.726;9.248;2023-01-08T13:55:51;0.57;;;0.30;;
44130;SDS011;29792;48.726;9.248;2023-01-08T13:58:25;1.45;;;0.40;;
44130;SDS011;29792;48.726;9.248;2023-01-08T14:00:53;0.63;;;0.28;;
44130;SDS011;29792;48.726;9.248;2023-01-08T14:04:05;1.70;;;0.40;;
44130;SDS011;29792;48.726;9.248;2023-01-08T14:06:15;0.60;;;0.60;;
44130;SDS011;29792;48.726;9.248;2023-01-08T14:14:02;2.47;;;2.10;;
44130;SDS011;29792;48.726;9.248;2023-01-08T14:16:28;1.05;;;0.40;;
44130;SDS011;29792;48.726;9.248;2023-01-08T14:18:53;0.40;;;0.10;;
44130;SDS011;29792;48.726;9.248;2023-01-08T14:21:23;0.20;;;0.20;;
44130;SDS011;29792;48.726;9.248;2023-01-08T14:23:49;0.35;;;0.10;;
44130;SDS011;29792;48.726;9.248;2023-01-08T14:26:25;0.20;;;0.10;;
44130;SDS011;29792;48.726;9.248;2023-01-08T14:29:15;0.17;;;0.17;;
44130;SDS011;29792;48.726;9.248;2023-01-08T14:31:47;0.20;;;0.10;;
44130;SDS011;29792;48.726;9.248;2023-01-08T14:34:15;0.82;;;0.20;;
44130;SDS011;29792;48.726;9.248;2023-01-08T14:36:43;0.32;;;0.30;;
44130;SDS011;29792;48.726;9.248;2023-01-08T14:39:09;1.40;;;0.20;;
44130;SDS011;29792;48.726;9.248;2023-01-08T14:41:36;0.50;;;0.20;;
44130;SDS011;29792;48.726;9.248;2023-01-08T14:44:24;0.50;;;0.20;;
44130;SDS011;29792;48.726;9.248;2023-01-08T14:46:51;1.35;;;0.30;;
44130;SDS011;29792;48.726;9.248;2023-01-08T14:49:28;0.32;;;0.32;;
44130;SDS011;29792;48.726;9.248;2023-01-08T14:51:57;0.40;;;0.28;;
44130;SDS011;29792;48.726;9.248;2023-01-08T14:54:29;0.10;;;0.10;;
44130;SDS011;29792;48.726;9.248;2023-01-08T14:56:57;0.55;;;0.20;;
44130;SDS011;29792;48.726;9.248;2023-01-08T14:59:25;2.00;;;0.30;;
44130;SDS011;29792;48.726;9.248;2023-01-08T15:01:54;2.22;;;0.30;;
44130;SDS011;29792;48.726;9.248;2023-01-08T15:04:22;0.45;;;0.43;;
44130;SDS011;29792;48.726;9.248;2023-01-08T15:07:02;0.55;;;0.40;;
44130;SDS011;29792;48.726;9.248;2023-01-08T15:09:30;0.80;;;0.45;;
44130;SDS011;29792;48.726;9.248;2023-01-08T15:12:01;0.57;;;0.57;;
44130;SDS011;29792;48.726;9.248;2023-01-08T15:14:28;0.60;;;0.40;;
44130;SDS011;29792;48.726;9.248;2023-01-08T15:17:08;0.20;;;0.20;;
44130;SDS011;29792;48.726;9.248;2023-01-08T15:19:41;0.40;;;0.40;;
44130;SDS011;29792;48.726;9.248;2023-01-08T15:22:14;0.60;;;0.47;;
44130;SDS011;29792;48.726;9.248;2023-01-08T15:24:43;0.68;;;0.40;;
44130;SDS011;29792;48.726;9.248;2023-01-08T15:27:19;0.45;;;0.43;;
44130;SDS011;29792;48.726;9.248;2023-01-08T15:29:48;1.15;;;0.50;;
44130;SDS011;29792;48.726;9.248;2023-01-08T15:34:41;0.93;;;0.63;;
44130;SDS011;29792;48.726;9.248;2023-01-08T15:37:07;0.77;;;0.50;;
44130;SDS011;29792;48.726;9.248;2023-01-08T15:39:33;0.45;;;0.30;;
44130;SDS011;29792;48.726;9.248;2023-01-08T15:44:58;0.32;;;0.30;;
44130;SDS011;29792;48.726;9.248;2023-01-08T15:47:23;1.25;;;0.50;;
44130;SDS011;29792;48.726;9.248;2023-01-08T15:49:51;0.82;;;0.52;;
44130;SDS011;29792;48.726;9.248;2023-01-08T15:52:19;0.30;;;0.30;;
44130;SDS011;29792;48.726;9.248;2023-01-08T15:54:47;0.90;;;0.75;;
44130;SDS011;29792;48.726;9.248;2023-01-08T15:57:13;0.90;;;0.85;;
44130;SDS011;29792;48.726;9.248;2023-01-08T15:59:38;0.60;;;0.40;;
44130;SDS011;29792;48.726;9.248;2023-01-08T16:02:03;0.55;;;0.20;;
44130;SDS011;29792;48.726;9.248;2023-01-08T16:04:28;0.38;;;0.38;;
44130;SDS011;29792;48.726;9.248;2023-01-08T16:06:54;1.20;;;0.60;;
44130;SDS011;29792;48.726;9.248;2023-01-08T16:09:19;0.40;;;0.30;;
44130;SDS011;29792;48.726;9.248;2023-01-08T16:11:44;0.70;;;0.60;;
44130;SDS011;29792;48.726;9.248;2023-01-08T16:14:09;14.93;;;9.98;;
44130;SDS011;29792;48.726;9.248;2023-01-08T16:16:35;5.40;;;1.67;;